Lennox, California
Current Conditions -  °F | °C
As of 12:53 AM on Friday 24 Oct 2014 (Local Time) from KHHR Reporting Station
Clear Clear  
Wind Chill: 65°   Ceiling: Unl
Heat Index: 65°   Visibility: 10mi
Dew Point: 60°   Wind: 0mph
Humidity: 84%   Direction: NA
Pressure: 29.97"   Gusts: NA
Location:  33.94°N, 118.35°W
Report Text: KHHR 240753Z AUTO 00000KT 10SM CLR 18/16 A2997 RMK AO2 SLP147 T01830156 402830167
Loading
Personal Weather Stations






























Interactive Weather Map
Tropical Storm Tracking
New forecast layout! Learn more

10-Day Weather Forecast

Advertisements
Track Severe Weather on mobile